Avioradar koristi kolačiće da bi Vam omogućio jednostavnije i ugodnije korištenje stranice. 

AVIORADAR - Hrvatski zrakoplovni portal

METAR i TAF za zračne luke u Hrvatskoj

[Source: ADDS]
METAR
LDZA 202100Z 00000KT 9999 BKN030 M01/M03 Q1019 NOSIG =
LDZA 201725Z 2018/2118 VRB02KT 9999 BKN025 TX02/2113Z TNM04/2105Z PROB40 TEMPO 2018/2110 3000 BR BKN010 PROB30 TEMPO 2022/2109 0300 FZFG VV002 LDSP 202100Z VRB02KT 9999 BKN055 07/05 Q1015 NOSIG =
LDSP 201725Z 2018/2118 34006KT 9999 BKN030 TX09/2113Z TN06/2106Z PROB40 TEMPO 2103/2118 10012KT 5000 RA PROB30 TEMPO 2112/2118 -TSRA FEW027CB BKN030 LDDU 202100Z 04006KT 350V080 9999 BKN050 08/04 Q1015 NOSIG =
LDDU 201725Z 2018/2118 09007KT 9999 BKN040 TX12/2112Z TN07/2021Z PROB30 TEMPO 2019/2103 03010KT BECMG 2110/2112 12014KT LDPL 202100Z 02006KT CAVOK 04/M01 Q1015 NOSIG =
LDPL 201725Z 2018/2118 06004KT CAVOK TX06/2113Z TN02/2105Z BECMG 2104/2106 06010KT LDZD 202100Z VRB02KT 9999 BKN067 05/01 Q1015 NOSIG =
LDZD 201725Z 2018/2118 10005KT 9999 BKN030 TX07/2112Z TN03/2107Z BECMG 2103/2105 07008KT PROB40 TEMPO 2108/2118 5000 RA PROB30 TEMPO 2108/2115 SHRA FEW027TCU BKN030 TEMPO 2109/2118 06012KT LDRI 202100Z 06005KT CAVOK 06/M02 Q1015 =
COR LDRI 201727Z 2018/2118 06006KT CAVOK TX06/2113Z TN03/2105Z PROB40 TEMPO 2112/2118 VRB10KT LDOS 202100Z 35004KT 9999 BKN033 01/00 Q1019 =
LDOS 201725Z 2018/2118 29006KT 8000 SCT010 OVC030 TX02/2113Z TNM03/2105Z TEMPO 2018/2110 3000 BR BKN005 OVC020 BECMG 2110/2112 05006KT
TAF
LDZA 201725Z 2018/2118 VRB02KT 9999 BKN025 TX02/2113Z TNM04/2105Z PROB40 TEMPO 2018/2110 3000 BR BKN010 PROB30 TEMPO 2022/2109 0300 FZFG VV002 =
LDSP 201725Z 2018/2118 34006KT 9999 BKN030 TX09/2113Z TN06/2106Z PROB40 TEMPO 2103/2118 10012KT 5000 RA PROB30 TEMPO 2112/2118 -TSRA FEW027CB BKN030 =
LDDU 201725Z 2018/2118 09007KT 9999 BKN040 TX12/2112Z TN07/2021Z PROB30 TEMPO 2019/2103 03010KT BECMG 2110/2112 12014KT =
LDPL 201725Z 2018/2118 06004KT CAVOK TX06/2113Z TN02/2105Z BECMG 2104/2106 06010KT =
LDZD 201725Z 2018/2118 10005KT 9999 BKN030 TX07/2112Z TN03/2107Z BECMG 2103/2105 07008KT PROB40 TEMPO 2108/2118 5000 RA PROB30 TEMPO 2108/2115 SHRA FEW027TCU BKN030 TEMPO 2109/2118 06012KT =
COR LDRI 201727Z 2018/2118 06006KT CAVOK TX06/2113Z TN03/2105Z PROB40 TEMPO 2112/2118 VRB10KT =
LDOS 201725Z 2018/2118 29006KT 8000 SCT010 OVC030 TX02/2113Z TNM03/2105Z TEMPO 2018/2110 3000 BR BKN005 OVC020 BECMG 2110/2112 05006KT =
SR / SS: 06:29 / 15:44 UTC (Zagreb 2019-01-20)